Time;durP1;ratioP1;P1;durP2;ratioP2;P2;SDS_P1;SDS_P2;PMS_P1;PMS_P2;Temp;Humidity;BMP_temperature;BMP_pressure;BME280_temperature;BME280_humidity;BME280_pressure;Samples;Min_cycle;Max_cycle;Signal;HPM_P1;HPM_P2
2023/05/02 00:02:09;;;;;;;1.50;1.40;;;;;;;;;;5020467;28;20690;-94
2023/05/02 00:04:41;;;;;;;2.83;1.77;;;;;;;;;;5020169;28;20208;-94
2023/05/02 00:07:19;;;;;;;1.23;1.23;;;;;;;;;;5018259;28;20346;-95
2023/05/02 00:09:54;;;;;;;1.23;1.20;;;;;;;;;;5018275;28;20200;-92
2023/05/02 00:12:29;;;;;;;1.57;1.47;;;;;;;;;;5017888;28;20303;-94
2023/05/02 00:15:03;;;;;;;1.70;1.60;;;;;;;;;;5017017;28;20192;-94
2023/05/02 00:17:37;;;;;;;1.83;1.30;;;;;;;;;;5017050;28;20559;-94
2023/05/02 00:20:11;;;;;;;2.07;1.50;;;;;;;;;;5017789;28;20227;-93
2023/05/02 00:22:47;;;;;;;1.50;1.40;;;;;;;;;;5017627;28;20218;-96
2023/05/02 00:25:24;;;;;;;5.50;1.00;;;;;;;;;;5017952;28;20349;-94
2023/05/02 00:28:01;;;;;;;1.20;1.20;;;;;;;;;;5001115;28;20204;-94
2023/05/02 00:30:30;;;;;;;1.47;1.37;;;;;;;;;;5016434;28;20215;-94
2023/05/02 00:33:15;;;;;;;1.23;1.23;;;;;;;;;;5018395;28;20211;-94
2023/05/02 00:35:47;;;;;;;1.70;1.60;;;;;;;;;;5017963;28;20300;-92
2023/05/02 00:38:18;;;;;;;1.33;1.33;;;;;;;;;;5022412;28;20227;-94
2023/05/02 00:40:52;;;;;;;1.33;1.33;;;;;;;;;;5027180;28;20227;-95
2023/05/02 00:43:24;;;;;;;1.17;0.97;;;;;;;;;;5018872;28;20208;-94
2023/05/02 00:45:58;;;;;;;1.57;1.50;;;;;;;;;;5017290;28;20209;-93
2023/05/02 00:48:36;;;;;;;6.30;1.80;;;;;;;;;;5017515;28;20211;-94
2023/05/02 00:51:10;;;;;;;1.10;1.10;;;;;;;;;;5018371;28;20197;-95
2023/05/02 00:53:38;;;;;;;1.50;1.40;;;;;;;;;;5018812;28;20300;-93
2023/05/02 00:56:16;;;;;;;1.13;1.03;;;;;;;;;;5022723;28;20731;-93
2023/05/02 00:58:50;;;;;;;1.27;1.27;;;;;;;;;;5019516;28;20209;-93
2023/05/02 01:01:29;;;;;;;1.77;1.67;;;;;;;;;;5017670;28;20323;-93
2023/05/02 01:04:05;;;;;;;1.80;1.70;;;;;;;;;;5017314;28;20215;-94
2023/05/02 01:06:51;;;;;;;1.63;1.53;;;;;;;;;;5017039;28;20322;-94
2023/05/02 01:09:23;;;;;;;1.00;1.00;;;;;;;;;;5018152;28;20205;-93
2023/05/02 01:12:07;;;;;;;1.70;1.30;;;;;;;;;;5017539;28;20754;-92
2023/05/02 01:14:44;;;;;;;1.20;1.10;;;;;;;;;;5023025;28;20266;-93
2023/05/02 01:17:15;;;;;;;1.60;1.47;;;;;;;;;;5017272;28;20234;-93
2023/05/02 01:20:05;;;;;;;1.97;1.67;;;;;;;;;;5018579;28;20192;-95
2023/05/02 01:22:49;;;;;;;1.73;1.63;;;;;;;;;;5021129;28;20205;-94
2023/05/02 01:25:23;;;;;;;1.50;1.40;;;;;;;;;;5020775;28;20596;-93
2023/05/02 01:28:01;;;;;;;2.13;1.37;;;;;;;;;;5020771;28;20192;-94
2023/05/02 01:30:33;;;;;;;2.67;1.60;;;;;;;;;;5020835;28;20295;-93
2023/05/02 01:33:03;;;;;;;2.83;1.47;;;;;;;;;;5020021;28;20254;-94
2023/05/02 01:35:32;;;;;;;3.53;1.80;;;;;;;;;;5020461;28;20254;-94
2023/05/02 01:38:02;;;;;;;1.63;1.43;;;;;;;;;;5020461;28;20213;-95
2023/05/02 01:40:31;;;;;;;1.67;1.57;;;;;;;;;;5021964;28;20216;-93
2023/05/02 01:43:02;;;;;;;1.63;1.57;;;;;;;;;;5021381;28;20205;-94
2023/05/02 01:45:36;;;;;;;1.60;1.50;;;;;;;;;;5026954;28;20208;-94
2023/05/02 01:48:05;;;;;;;1.40;1.40;;;;;;;;;;5037189;28;20272;-93
2023/05/02 01:50:40;;;;;;;1.67;1.30;;;;;;;;;;5038896;28;20197;-93
2023/05/02 01:53:22;;;;;;;1.10;1.10;;;;;;;;;;5034950;28;20230;-93
2023/05/02 01:55:55;;;;;;;1.37;1.23;;;;;;;;;;5037624;28;20236;-94
2023/05/02 01:58:27;;;;;;;3.33;2.27;;;;;;;;;;5031482;28;20210;-93
2023/05/02 02:01:01;;;;;;;4.50;1.50;;;;;;;;;;5020323;28;20199;-95
2023/05/02 02:03:35;;;;;;;1.50;1.50;;;;;;;;;;5020214;28;20263;-95
2023/05/02 02:06:07;;;;;;;1.77;1.30;;;;;;;;;;5020345;28;20207;-93
2023/05/02 02:08:36;;;;;;;1.20;1.20;;;;;;;;;;5020374;28;20230;-93
2023/05/02 02:11:12;;;;;;;1.67;1.57;;;;;;;;;;5020259;28;20240;-94
2023/05/02 02:13:41;;;;;;;2.10;1.50;;;;;;;;;;5020268;28;20200;-92
2023/05/02 02:16:21;;;;;;;;;;;;;;;;;;;;;
2023/05/02 02:18:51;;;;;;;2.00;1.90;;;;;;;;;;5020115;28;20200;-93
2023/05/02 02:21:20;;;;;;;1.43;1.33;;;;;;;;;;5019906;28;20689;-94
2023/05/02 02:23:55;;;;;;;3.50;1.50;;;;;;;;;;5020121;28;20248;-95
2023/05/02 02:26:30;;;;;;;1.57;1.47;;;;;;;;;;5019521;28;20248;-94
2023/05/02 02:28:58;;;;;;;3.87;1.30;;;;;;;;;;5019523;28;20192;-93
2023/05/02 02:31:31;;;;;;;2.27;1.87;;;;;;;;;;5019607;28;20200;-92
2023/05/02 02:33:59;;;;;;;1.50;1.40;;;;;;;;;;5019766;28;20212;-95
2023/05/02 02:36:33;;;;;;;1.27;1.27;;;;;;;;;;5019255;28;20228;-93
2023/05/02 02:39:14;;;;;;;1.43;1.43;;;;;;;;;;5019241;28;20607;-94
2023/05/02 02:41:44;;;;;;;3.50;1.60;;;;;;;;;;5019374;28;20197;-94
2023/05/02 02:44:22;;;;;;;1.80;1.70;;;;;;;;;;5019561;28;20208;-94
2023/05/02 02:47:01;;;;;;;1.73;1.70;;;;;;;;;;5022665;28;20204;-93
2023/05/02 02:49:33;;;;;;;1.60;1.50;;;;;;;;;;5034910;28;20197;-94
2023/05/02 02:52:11;;;;;;;2.07;1.70;;;;;;;;;;5035185;28;20204;-94
2023/05/02 02:54:46;;;;;;;1.70;1.60;;;;;;;;;;5019701;28;20228;-92
2023/05/02 02:57:34;;;;;;;1.47;1.37;;;;;;;;;;5019951;28;20637;-94
2023/05/02 03:00:11;;;;;;;1.67;1.57;;;;;;;;;;5019934;28;20208;-94
2023/05/02 03:02:43;;;;;;;1.93;1.83;;;;;;;;;;5019064;28;20196;-93
2023/05/02 03:05:12;;;;;;;1.40;1.40;;;;;;;;;;5021255;28;20201;-95
2023/05/02 03:07:40;;;;;;;1.97;1.87;;;;;;;;;;5021932;28;20205;-93
2023/05/02 03:10:15;;;;;;;1.63;1.40;;;;;;;;;;5027316;28;20237;-94
2023/05/02 03:12:43;;;;;;;2.00;1.90;;;;;;;;;;5029839;28;20196;-92
2023/05/02 03:15:16;;;;;;;2.37;1.70;;;;;;;;;;5020628;28;20255;-93
2023/05/02 03:18:01;;;;;;;1.60;1.60;;;;;;;;;;5019762;28;20239;-95
2023/05/02 03:20:32;;;;;;;3.47;1.83;;;;;;;;;;5014626;28;20228;-95
2023/05/02 03:23:00;;;;;;;1.70;1.60;;;;;;;;;;5028491;28;20290;-94
2023/05/02 03:25:37;;;;;;;2.13;1.90;;;;;;;;;;5028697;28;20197;-92
2023/05/02 03:28:15;;;;;;;1.90;1.80;;;;;;;;;;5027498;28;20256;-95
2023/05/02 03:31:00;;;;;;;7.80;1.60;;;;;;;;;;5030395;28;20201;-93
2023/05/02 03:33:57;;;;;;;1.40;1.40;;;;;;;;;;5035654;28;20215;-94
2023/05/02 03:36:37;;;;;;;1.80;1.70;;;;;;;;;;5028331;28;20287;-94
2023/05/02 03:39:12;;;;;;;1.93;1.63;;;;;;;;;;5036840;28;20229;-94
2023/05/02 03:41:43;;;;;;;2.03;1.87;;;;;;;;;;5021699;28;20251;-95
2023/05/02 03:44:12;;;;;;;2.00;1.90;;;;;;;;;;5020562;28;20197;-93
2023/05/02 03:46:43;;;;;;;3.63;2.00;;;;;;;;;;5020578;28;20272;-92
2023/05/02 03:49:12;;;;;;;1.93;1.77;;;;;;;;;;5020080;28;20200;-92
2023/05/02 03:51:43;;;;;;;2.07;1.97;;;;;;;;;;5020316;28;20208;-93
2023/05/02 03:54:16;;;;;;;1.83;1.73;;;;;;;;;;5023428;28;20318;-93
2023/05/02 03:56:56;;;;;;;1.70;1.60;;;;;;;;;;5025142;28;20276;-92
2023/05/02 03:59:26;;;;;;;1.77;1.67;;;;;;;;;;5033732;28;20207;-92
2023/05/02 04:01:58;;;;;;;1.40;1.40;;;;;;;;;;5027150;28;20222;-92
2023/05/02 04:04:28;;;;;;;2.40;2.20;;;;;;;;;;5022067;28;20203;-93
2023/05/02 04:07:03;;;;;;;2.60;1.95;;;;;;;;;;5021954;28;20199;-93
2023/05/02 04:09:34;;;;;;;1.70;1.60;;;;;;;;;;5022601;28;20315;-92
2023/05/02 04:12:05;;;;;;;1.92;1.85;;;;;;;;;;5021422;28;20243;-94
2023/05/02 04:14:33;;;;;;;2.83;2.15;;;;;;;;;;5019737;28;20255;-95
2023/05/02 04:17:08;;;;;;;2.08;1.98;;;;;;;;;;5024384;28;20241;-96
2023/05/02 04:19:38;;;;;;;1.65;1.65;;;;;;;;;;5024840;28;20212;-93
2023/05/02 04:22:14;;;;;;;1.75;1.65;;;;;;;;;;5027643;28;20193;-93
2023/05/02 04:27:26;;;;;;;2.15;2.05;;;;;;;;;;5019785;28;20200;-94
2023/05/02 04:29:55;;;;;;;1.88;1.77;;;;;;;;;;5026085;28;20310;-94
2023/05/02 04:32:25;;;;;;;2.75;1.83;;;;;;;;;;5025265;28;20272;-94
2023/05/02 04:34:59;;;;;;;1.90;1.80;;;;;;;;;;5021026;28;20200;-93
2023/05/02 04:37:43;;;;;;;2.15;2.05;;;;;;;;;;5019022;28;20248;-94
2023/05/02 04:40:35;;;;;;;1.98;1.88;;;;;;;;;;5019811;28;20204;-95
2023/05/02 04:43:04;;;;;;;2.13;2.03;;;;;;;;;;5019488;28;20628;-94
2023/05/02 04:45:37;;;;;;;1.50;1.50;;;;;;;;;;5019867;28;20269;-93
2023/05/02 04:48:08;;;;;;;1.98;1.88;;;;;;;;;;5017202;28;20649;-93
2023/05/02 04:50:56;;;;;;;1.52;1.52;;;;;;;;;;5018634;28;20607;-93
2023/05/02 04:53:51;;;;;;;3.17;1.25;;;;;;;;;;5019371;28;20621;-93
2023/05/02 04:56:28;;;;;;;2.15;1.80;;;;;;;;;;4992330;28;20267;-92
2023/05/02 04:58:55;;;;;;;1.55;1.55;;;;;;;;;;5001321;28;20195;-94
2023/05/02 05:01:26;;;;;;;1.65;1.55;;;;;;;;;;5000706;28;20208;-93
2023/05/02 05:04:01;;;;;;;1.88;1.77;;;;;;;;;;5001537;28;20710;-94
2023/05/02 05:06:48;;;;;;;2.10;2.00;;;;;;;;;;4999946;28;20208;-94
2023/05/02 05:09:34;;;;;;;;;;;;;;;;;;;;;
2023/05/02 05:12:18;;;;;;;1.60;1.50;;;;;;;;;;5015704;28;20205;-90
2023/05/02 05:14:49;;;;;;;1.60;1.60;;;;;;;;;;5018035;28;20200;-94
2023/05/02 05:17:27;;;;;;;3.38;1.77;;;;;;;;;;5003404;28;20232;-94
2023/05/02 05:22:46;;;;;;;1.98;1.88;;;;;;;;;;4993274;28;20197;-92
2023/05/02 05:25:16;;;;;;;1.60;1.50;;;;;;;;;;5001654;28;20205;-90
2023/05/02 05:27:54;;;;;;;1.80;1.70;;;;;;;;;;5002612;28;20268;-93
2023/05/02 05:30:42;;;;;;;1.55;1.50;;;;;;;;;;5003049;28;20259;-93
2023/05/02 05:33:28;;;;;;;1.85;1.75;;;;;;;;;;5001552;28;20642;-94
2023/05/02 05:36:19;;;;;;;1.60;1.50;;;;;;;;;;5003679;28;20273;-92
2023/05/02 05:39:04;;;;;;;1.70;1.60;;;;;;;;;;5006959;28;20240;-92
2023/05/02 05:50:50;;;;;;;1.10;1.10;;;;;;;;;;4989308;28;20205;-95
2023/05/02 05:56:21;;;;;;;1.90;1.80;;;;;;;;;;4992977;28;20197;-93
2023/05/02 05:59:08;;;;;;;1.70;1.60;;;;;;;;;;5008477;28;20685;-93
2023/05/02 06:02:01;;;;;;;1.75;1.65;;;;;;;;;;5003488;28;20221;-94
2023/05/02 06:04:59;;;;;;;1.30;1.30;;;;;;;;;;5002374;28;20284;-93
2023/05/02 06:07:41;;;;;;;2.42;1.67;;;;;;;;;;4945904;29;20275;-94
2023/05/02 06:10:35;;;;;;;1.70;1.60;;;;;;;;;;4952535;29;20183;-93
2023/05/02 06:13:24;;;;;;;1.90;1.90;;;;;;;;;;4950799;29;20219;-94
2023/05/02 06:16:07;;;;;;;2.13;1.95;;;;;;;;;;4943812;29;20327;-93
2023/05/02 06:21:27;;;;;;;1.23;1.23;;;;;;;;;;4935083;29;20262;-94
2023/05/02 06:24:07;;;;;;;1.48;1.38;;;;;;;;;;4945283;29;20191;-93
2023/05/02 06:29:34;;;;;;;2.00;1.90;;;;;;;;;;5006599;28;20209;-94
2023/05/02 06:32:03;;;;;;;1.38;1.38;;;;;;;;;;5003455;28;20210;-94
2023/05/02 06:34:52;;;;;;;1.90;1.80;;;;;;;;;;5001860;28;20201;-93
2023/05/02 06:40:25;;;;;;;1.27;1.27;;;;;;;;;;4994454;28;20201;-94
2023/05/02 06:43:01;;;;;;;1.67;1.45;;;;;;;;;;5001255;28;20208;-93
2023/05/02 06:45:41;;;;;;;2.80;1.33;;;;;;;;;;5000551;28;20216;-90
2023/05/02 06:48:21;;;;;;;1.55;1.45;;;;;;;;;;4999421;28;20228;-93
2023/05/02 06:53:32;;;;;;;1.63;1.45;;;;;;;;;;4976387;28;20264;-93
2023/05/02 06:59:29;;;;;;;1.17;1.17;;;;;;;;;;4984955;28;20318;-93
2023/05/02 07:02:05;;;;;;;1.30;1.30;;;;;;;;;;5006035;28;20225;-92
2023/05/02 07:04:48;;;;;;;1.27;1.20;;;;;;;;;;4999694;28;20212;-94
2023/05/02 07:10:21;;;;;;;1.10;1.10;;;;;;;;;;4996358;28;20269;-93
2023/05/02 07:13:12;;;;;;;;;;;;;;;;;;;;;
2023/05/02 07:15:44;;;;;;;0.98;0.98;;;;;;;;;;5000352;28;20197;-92
2023/05/02 07:18:17;;;;;;;1.05;1.05;;;;;;;;;;5000452;28;20235;-92
2023/05/02 07:21:01;;;;;;;1.00;1.00;;;;;;;;;;4999806;28;20292;-94
2023/05/02 07:23:36;;;;;;;1.45;1.45;;;;;;;;;;4999069;28;20480;-92
2023/05/02 07:26:17;;;;;;;1.55;1.45;;;;;;;;;;5000509;28;20209;-92
2023/05/02 07:28:49;;;;;;;1.13;1.00;;;;;;;;;;5001285;28;20205;-93
2023/05/02 07:31:37;;;;;;;;;;;;;;;;;;;;;
2023/05/02 07:34:12;;;;;;;1.40;1.40;;;;;;;;;;4999268;28;20201;-91
2023/05/02 07:36:44;;;;;;;3.13;1.45;;;;;;;;;;4999932;28;20204;-93
2023/05/02 07:39:15;;;;;;;0.90;0.90;;;;;;;;;;4999186;28;20239;-93
2023/05/02 07:41:44;;;;;;;1.30;1.20;;;;;;;;;;5000041;28;20201;-93
2023/05/02 07:44:43;;;;;;;0.90;0.90;;;;;;;;;;5000242;28;20346;-92
2023/05/02 07:47:16;;;;;;;1.48;1.40;;;;;;;;;;4998864;28;20213;-93
2023/05/02 07:55:59;;;;;;;0.90;0.90;;;;;;;;;;4940675;28;20795;-93
2023/05/02 07:58:28;;;;;;;0.90;0.90;;;;;;;;;;5000045;28;20319;-92
2023/05/02 08:00:58;;;;;;;1.23;1.15;;;;;;;;;;4999886;28;20593;-94
2023/05/02 08:03:29;;;;;;;1.10;1.10;;;;;;;;;;4999777;28;20201;-93
2023/05/02 08:06:08;;;;;;;1.00;1.00;;;;;;;;;;4998210;28;20197;-94
2023/05/02 08:08:42;;;;;;;1.30;1.20;;;;;;;;;;4998172;28;20261;-91
2023/05/02 08:11:24;;;;;;;1.48;1.40;;;;;;;;;;4997767;28;20234;-93
2023/05/02 08:13:57;;;;;;;0.80;0.80;;;;;;;;;;4998549;28;20213;-94
2023/05/02 08:16:25;;;;;;;1.73;1.70;;;;;;;;;;5000742;28;20679;-92
2023/05/02 08:19:06;;;;;;;1.05;1.05;;;;;;;;;;4997412;28;20319;-91
2023/05/02 08:24:40;;;;;;;0.95;0.95;;;;;;;;;;4996270;28;20204;-94
2023/05/02 08:27:18;;;;;;;1.65;1.60;;;;;;;;;;4901790;29;20268;-95
2023/05/02 08:29:57;;;;;;;1.08;1.00;;;;;;;;;;4905429;28;20651;-92
2023/05/02 08:32:28;;;;;;;1.15;1.15;;;;;;;;;;5005619;28;20204;-91
2023/05/02 08:34:58;;;;;;;1.10;1.10;;;;;;;;;;5007253;28;20225;-92
2023/05/02 08:37:43;;;;;;;0.90;0.90;;;;;;;;;;5001563;28;20216;-92
2023/05/02 08:40:25;;;;;;;1.00;1.00;;;;;;;;;;5009420;28;20190;-93
2023/05/02 08:43:07;;;;;;;1.10;1.10;;;;;;;;;;5007945;28;20252;-92
2023/05/02 08:45:42;;;;;;;1.15;1.15;;;;;;;;;;5001075;28;20206;-93
2023/05/02 08:48:20;;;;;;;1.10;1.10;;;;;;;;;;5011247;28;20189;-93
2023/05/02 08:53:39;;;;;;;1.70;1.20;;;;;;;;;;4997606;28;20209;-92
2023/05/02 08:56:13;;;;;;;1.10;1.10;;;;;;;;;;4978449;28;20202;-93
2023/05/02 08:58:50;;;;;;;0.90;0.90;;;;;;;;;;4978175;28;20262;-92
2023/05/02 09:01:23;;;;;;;0.90;0.90;;;;;;;;;;4979440;28;20209;-92
2023/05/02 09:03:57;;;;;;;1.20;1.20;;;;;;;;;;4979037;28;20233;-92
2023/05/02 09:06:31;;;;;;;1.00;1.00;;;;;;;;;;4978294;28;20208;-94
2023/05/02 09:09:13;;;;;;;1.25;0.98;;;;;;;;;;4977123;28;20249;-94
2023/05/02 09:11:50;;;;;;;1.00;1.00;;;;;;;;;;4981079;28;20214;-93
2023/05/02 09:14:28;;;;;;;1.00;1.00;;;;;;;;;;4996456;28;20225;-93
2023/05/02 09:23:20;;;;;;;0.95;0.95;;;;;;;;;;5161132;23;20248;-93
2023/05/02 09:26:08;;;;;;;1.02;1.02;;;;;;;;;;5035353;28;20193;-93
2023/05/02 09:28:50;;;;;;;0.90;0.90;;;;;;;;;;5031138;28;20189;-93
2023/05/02 09:34:15;;;;;;;2.85;1.70;;;;;;;;;;5033023;28;20207;-93
2023/05/02 09:36:50;;;;;;;0.80;0.80;;;;;;;;;;5035933;28;20180;-93
2023/05/02 09:39:28;;;;;;;;;;;;;;;;;;;;;
2023/05/02 09:42:02;;;;;;;0.88;0.88;;;;;;;;;;5016351;28;20174;-91
2023/05/02 09:44:41;;;;;;;1.15;1.15;;;;;;;;;;5019731;28;20209;-94
2023/05/02 09:47:25;;;;;;;1.27;1.27;;;;;;;;;;5019590;28;20173;-92
2023/05/02 09:49:55;;;;;;;0.80;0.80;;;;;;;;;;5018884;28;20264;-94
2023/05/02 09:52:33;;;;;;;1.40;1.30;;;;;;;;;;5017719;28;20277;-93
2023/05/02 09:58:33;;;;;;;1.02;1.02;;;;;;;;;;5008915;28;20221;-92
2023/05/02 10:01:23;;;;;;;;;;;;;;;;;;;;;
2023/05/02 10:04:12;;;;;;;;;;;;;;;;;;;;;
2023/05/02 10:07:05;;;;;;;0.93;0.93;;;;;;;;;;5005936;28;20636;-93
2023/05/02 10:12:45;;;;;;;0.73;0.73;;;;;;;;;;4897565;29;20289;-93
2023/05/02 10:15:22;;;;;;;1.55;1.15;;;;;;;;;;4896097;29;20223;-92
2023/05/02 10:17:52;;;;;;;0.65;0.65;;;;;;;;;;4988045;28;20758;-93
2023/05/02 10:20:31;;;;;;;0.90;0.90;;;;;;;;;;4989130;28;20230;-93
2023/05/02 10:23:04;;;;;;;0.90;0.90;;;;;;;;;;4998583;28;20198;-94
2023/05/02 10:25:58;;;;;;;1.02;0.90;;;;;;;;;;4998843;28;20197;-93
2023/05/02 10:28:59;;;;;;;1.02;1.02;;;;;;;;;;4920858;29;20260;-93
2023/05/02 10:32:00;;;;;;;0.98;0.98;;;;;;;;;;4925953;28;20197;-94
2023/05/02 10:34:36;;;;;;;0.85;0.85;;;;;;;;;;4984006;28;20209;-95
2023/05/02 10:37:19;;;;;;;3.70;1.15;;;;;;;;;;4978681;28;20659;-94
2023/05/02 10:39:59;;;;;;;1.05;1.05;;;;;;;;;;4961040;28;20246;-94
2023/05/02 10:42:30;;;;;;;1.20;1.20;;;;;;;;;;4979178;28;20272;-93
2023/05/02 10:45:07;;;;;;;0.98;0.98;;;;;;;;;;4978815;28;20568;-93
2023/05/02 10:47:35;;;;;;;0.93;0.93;;;;;;;;;;4978572;28;20699;-92
2023/05/02 10:50:10;;;;;;;0.90;0.90;;;;;;;;;;4977750;28;20207;-92
2023/05/02 10:52:40;;;;;;;0.65;0.65;;;;;;;;;;4978107;28;20288;-96
2023/05/02 10:55:32;;;;;;;0.63;0.63;;;;;;;;;;4979933;28;20209;-94
2023/05/02 10:58:27;;;;;;;1.13;0.88;;;;;;;;;;4981760;28;20203;-94
2023/05/02 11:07:10;;;;;;;1.20;0.90;;;;;;;;;;4993168;28;20212;-95
2023/05/02 11:09:43;;;;;;;0.93;0.93;;;;;;;;;;4990560;28;20199;-94
2023/05/02 11:12:46;;;;;;;0.68;0.68;;;;;;;;;;4997493;28;20270;-94
2023/05/02 11:18:29;;;;;;;0.65;0.65;;;;;;;;;;4976580;28;20210;-92
2023/05/02 11:21:27;;;;;;;0.80;0.80;;;;;;;;;;4977074;28;20264;-94
2023/05/02 11:24:10;;;;;;;1.00;1.00;;;;;;;;;;4977453;28;20610;-94
2023/05/02 11:26:54;;;;;;;0.80;0.80;;;;;;;;;;4968975;28;20213;-92
2023/05/02 11:29:43;;;;;;;1.65;0.80;;;;;;;;;;4978978;28;20203;-95
2023/05/02 11:32:22;;;;;;;0.90;0.90;;;;;;;;;;4978790;28;20213;-92
2023/05/02 11:35:08;;;;;;;0.88;0.88;;;;;;;;;;4978722;28;20222;-92
2023/05/02 11:37:55;;;;;;;0.80;0.80;;;;;;;;;;4978909;28;20198;-94
2023/05/02 11:40:29;;;;;;;1.00;1.00;;;;;;;;;;4978154;28;20238;-90
2023/05/02 11:43:01;;;;;;;0.82;0.82;;;;;;;;;;4990417;28;20233;-95
2023/05/02 11:45:36;;;;;;;1.10;0.95;;;;;;;;;;4991991;28;20281;-94
2023/05/02 11:48:25;;;;;;;0.90;0.90;;;;;;;;;;4997234;28;20201;-93
2023/05/02 11:51:15;;;;;;;2.05;0.70;;;;;;;;;;4979365;28;20206;-94
2023/05/02 11:53:43;;;;;;;1.00;1.00;;;;;;;;;;4991563;28;20336;-92
2023/05/02 11:56:15;;;;;;;0.80;0.80;;;;;;;;;;4985683;28;20253;-93
2023/05/02 11:58:58;;;;;;;1.00;1.00;;;;;;;;;;4980307;28;20236;-93
2023/05/02 12:01:38;;;;;;;0.90;0.90;;;;;;;;;;4977601;28;20213;-94
2023/05/02 12:04:25;;;;;;;1.67;1.38;;;;;;;;;;4977835;28;20208;-93
2023/05/02 12:07:06;;;;;;;0.65;0.65;;;;;;;;;;4976370;28;20625;-93
2023/05/02 12:10:00;;;;;;;0.65;0.65;;;;;;;;;;4977608;28;20213;-94
2023/05/02 12:12:41;;;;;;;;;;;;;;;;;;;;;
2023/05/02 12:15:10;;;;;;;1.13;1.13;;;;;;;;;;4989788;28;20212;-92
2023/05/02 12:17:51;;;;;;;0.80;0.80;;;;;;;;;;4989364;28;20217;-92
2023/05/02 12:20:27;;;;;;;1.83;0.73;;;;;;;;;;4981157;28;20316;-94
2023/05/02 12:22:57;;;;;;;0.80;0.80;;;;;;;;;;4977784;28;20261;-94
2023/05/02 12:25:30;;;;;;;0.68;0.68;;;;;;;;;;4977529;28;20198;-94
2023/05/02 12:28:01;;;;;;;1.00;1.00;;;;;;;;;;4977536;28;20221;-92
2023/05/02 12:30:42;;;;;;;0.80;0.80;;;;;;;;;;4976503;28;20216;-93
2023/05/02 12:33:15;;;;;;;0.82;0.82;;;;;;;;;;4976658;28;20205;-93
2023/05/02 12:35:49;;;;;;;0.70;0.70;;;;;;;;;;4976486;28;20256;-92
2023/05/02 12:38:21;;;;;;;0.93;0.93;;;;;;;;;;4975279;28;20268;-91
2023/05/02 12:40:49;;;;;;;0.88;0.85;;;;;;;;;;4976025;28;20301;-94
2023/05/02 12:43:24;;;;;;;0.90;0.90;;;;;;;;;;4978088;28;20270;-92
2023/05/02 12:46:08;;;;;;;1.08;0.80;;;;;;;;;;4981658;28;20206;-93
2023/05/02 12:51:39;;;;;;;0.90;0.90;;;;;;;;;;4958900;28;20209;-94
2023/05/02 12:54:21;;;;;;;1.05;0.73;;;;;;;;;;4976470;28;20209;-94
2023/05/02 12:56:51;;;;;;;1.02;1.02;;;;;;;;;;4976398;28;20362;-93
2023/05/02 12:59:27;;;;;;;1.20;1.20;;;;;;;;;;4978195;28;20603;-92
2023/05/02 13:02:10;;;;;;;1.30;1.30;;;;;;;;;;4978430;28;20210;-94
2023/05/02 13:04:49;;;;;;;0.90;0.90;;;;;;;;;;4976715;28;20202;-93
2023/05/02 13:16:12;;;;;;;0.82;0.82;;;;;;;;;;4976303;28;20197;-91
2023/05/02 13:18:44;;;;;;;0.80;0.80;;;;;;;;;;4978674;28;20639;-92
2023/05/02 13:21:24;;;;;;;0.70;0.70;;;;;;;;;;4978963;28;20707;-92
2023/05/02 13:24:05;;;;;;;1.00;0.90;;;;;;;;;;4980212;28;20202;-93
2023/05/02 13:27:04;;;;;;;0.47;0.47;;;;;;;;;;4987785;28;20654;-93
2023/05/02 13:29:36;;;;;;;0.70;0.70;;;;;;;;;;4980836;28;20272;-94
2023/05/02 13:32:15;;;;;;;1.27;1.20;;;;;;;;;;4983220;28;20202;-92
2023/05/02 13:34:50;;;;;;;0.60;0.60;;;;;;;;;;4987115;28;20204;-92
2023/05/02 13:37:20;;;;;;;1.40;1.00;;;;;;;;;;4993474;28;20598;-93
2023/05/02 13:40:01;;;;;;;1.10;0.90;;;;;;;;;;4991417;28;20268;-92
2023/05/02 13:42:34;;;;;;;1.00;1.00;;;;;;;;;;4981425;28;20209;-93
2023/05/02 13:45:13;;;;;;;2.03;0.90;;;;;;;;;;4980106;28;20198;-92
2023/05/02 13:47:50;;;;;;;0.77;0.77;;;;;;;;;;4984018;28;20212;-92
2023/05/02 13:50:22;;;;;;;0.70;0.70;;;;;;;;;;4981708;28;20288;-95
2023/05/02 13:52:56;;;;;;;0.50;0.50;;;;;;;;;;4979895;28;20210;-94
2023/05/02 13:55:31;;;;;;;2.15;1.48;;;;;;;;;;4981292;28;20261;-91
2023/05/02 13:58:06;;;;;;;1.00;1.00;;;;;;;;;;4981578;28;20254;-93
2023/05/02 14:00:41;;;;;;;0.70;0.70;;;;;;;;;;4981810;28;20221;-91
2023/05/02 14:03:24;;;;;;;0.40;0.40;;;;;;;;;;4981526;28;20202;-93
2023/05/02 14:05:51;;;;;;;0.80;0.80;;;;;;;;;;4979861;28;20198;-92
2023/05/02 14:08:27;;;;;;;0.75;0.75;;;;;;;;;;4979657;28;20800;-92
2023/05/02 14:11:02;;;;;;;0.77;0.77;;;;;;;;;;4978717;28;20288;-93
2023/05/02 14:13:40;;;;;;;1.05;0.55;;;;;;;;;;4979391;28;20267;-93
2023/05/02 14:16:09;;;;;;;0.90;0.90;;;;;;;;;;4979264;28;20209;-91
2023/05/02 14:18:39;;;;;;;0.68;0.68;;;;;;;;;;4980534;28;20197;-92
2023/05/02 14:21:07;;;;;;;0.70;0.70;;;;;;;;;;4981480;28;20240;-92
2023/05/02 14:23:51;;;;;;;0.73;0.73;;;;;;;;;;4979752;28;20202;-92
2023/05/02 14:26:22;;;;;;;0.75;0.75;;;;;;;;;;4980099;28;20202;-94
2023/05/02 14:28:50;;;;;;;0.68;0.68;;;;;;;;;;4978126;28;20233;-92
2023/05/02 14:31:18;;;;;;;0.77;0.77;;;;;;;;;;4979061;28;20702;-94
2023/05/02 14:33:46;;;;;;;0.47;0.47;;;;;;;;;;4979502;28;20268;-91
2023/05/02 14:36:14;;;;;;;1.85;1.05;;;;;;;;;;4979590;28;20738;-91
2023/05/02 14:38:45;;;;;;;2.05;0.88;;;;;;;;;;4981095;28;20789;-92
2023/05/02 14:41:13;;;;;;;0.73;0.73;;;;;;;;;;4981040;28;20376;-92
2023/05/02 14:43:45;;;;;;;1.13;0.70;;;;;;;;;;4994471;28;20278;-93
2023/05/02 14:46:20;;;;;;;1.00;0.95;;;;;;;;;;4991366;28;20202;-92
2023/05/02 14:48:51;;;;;;;1.05;1.05;;;;;;;;;;4985740;28;20213;-93
2023/05/02 14:51:31;;;;;;;0.80;0.70;;;;;;;;;;4988750;28;20258;-94
2023/05/02 14:54:00;;;;;;;0.60;0.60;;;;;;;;;;4979864;28;20257;-93
2023/05/02 14:56:43;;;;;;;0.90;0.90;;;;;;;;;;4988371;28;20219;-92
2023/05/02 14:59:24;;;;;;;0.70;0.70;;;;;;;;;;4984563;28;20202;-92
2023/05/02 15:05:00;;;;;;;0.95;0.95;;;;;;;;;;4981044;28;20667;-94
2023/05/02 15:07:33;;;;;;;0.90;0.90;;;;;;;;;;4987659;28;20221;-93
2023/05/02 15:10:10;;;;;;;4.38;0.85;;;;;;;;;;4988611;28;20264;-93
2023/05/02 15:12:39;;;;;;;0.70;0.70;;;;;;;;;;4991347;28;20198;-93
2023/05/02 15:15:13;;;;;;;1.08;1.08;;;;;;;;;;4988239;28;20269;-92
2023/05/02 15:17:46;;;;;;;0.40;0.40;;;;;;;;;;4980054;28;20203;-93
2023/05/02 15:20:26;;;;;;;0.50;0.50;;;;;;;;;;4980994;28;20614;-93
2023/05/02 15:23:17;;;;;;;0.90;0.82;;;;;;;;;;4979646;28;20205;-92
2023/05/02 15:25:48;;;;;;;0.60;0.60;;;;;;;;;;4977743;28;20201;-92
2023/05/02 15:28:22;;;;;;;0.35;0.35;;;;;;;;;;4978899;28;20234;-93
2023/05/02 15:31:14;;;;;;;0.70;0.70;;;;;;;;;;4976795;28;20272;-91
2023/05/02 15:36:31;;;;;;;0.70;0.70;;;;;;;;;;4976610;28;20196;-93
2023/05/02 15:39:08;;;;;;;0.60;0.60;;;;;;;;;;4977163;28;20327;-93
2023/05/02 15:41:38;;;;;;;0.50;0.50;;;;;;;;;;4975553;28;20245;-92
2023/05/02 15:44:11;;;;;;;1.23;0.70;;;;;;;;;;4976397;28;20208;-94
2023/05/02 15:46:54;;;;;;;0.50;0.50;;;;;;;;;;4977773;28;20210;-94
2023/05/02 15:49:33;;;;;;;0.30;0.30;;;;;;;;;;4977382;28;20340;-93
2023/05/02 15:52:17;;;;;;;0.52;0.52;;;;;;;;;;4978411;28;20221;-93
2023/05/02 15:54:54;;;;;;;0.52;0.52;;;;;;;;;;4977122;28;20273;-93
2023/05/02 15:57:34;;;;;;;0.90;0.55;;;;;;;;;;4981589;28;20204;-93
2023/05/02 16:03:25;;;;;;;1.13;0.43;;;;;;;;;;4972559;28;20219;-92
2023/05/02 16:06:07;;;;;;;0.45;0.45;;;;;;;;;;4979200;28;20263;-94
2023/05/02 16:12:07;;;;;;;0.82;0.47;;;;;;;;;;4921880;29;20226;-95
2023/05/02 16:20:48;;;;;;;0.40;0.40;;;;;;;;;;4915153;29;20232;-93
2023/05/02 16:23:34;;;;;;;0.50;0.50;;;;;;;;;;4925649;29;20275;-95
2023/05/02 16:29:08;;;;;;;0.30;0.30;;;;;;;;;;4925144;29;20214;-93
2023/05/02 16:31:54;;;;;;;0.28;0.28;;;;;;;;;;4952843;28;20658;-94
2023/05/02 16:37:42;;;;;;;1.70;0.50;;;;;;;;;;4983938;28;20201;-92
2023/05/02 16:40:45;;;;;;;;;;;;;;;;;;;;;
2023/05/02 16:43:28;;;;;;;0.40;0.40;;;;;;;;;;4983412;28;20207;-94
2023/05/02 16:49:40;;;;;;;0.85;0.85;;;;;;;;;;4925343;28;20218;-95
2023/05/02 17:04:11;;;;;;;2.55;0.50;;;;;;;;;;4983690;28;20220;-93
2023/05/02 17:06:50;;;;;;;0.30;0.30;;;;;;;;;;4989705;28;20202;-93
2023/05/02 17:09:23;;;;;;;0.35;0.35;;;;;;;;;;4994486;28;20206;-94
2023/05/02 17:27:31;;;;;;;1.17;0.95;;;;;;;;;;4985440;28;20218;-93
2023/05/02 17:30:00;;;;;;;0.52;0.40;;;;;;;;;;4989661;28;20210;-95
2023/05/02 17:32:36;;;;;;;0.32;0.32;;;;;;;;;;4984760;28;20261;-95
2023/05/02 17:35:15;;;;;;;0.40;0.40;;;;;;;;;;4984291;28;20228;-93
2023/05/02 17:37:56;;;;;;;0.32;0.32;;;;;;;;;;4983408;28;20506;-93
2023/05/02 17:40:28;;;;;;;0.38;0.38;;;;;;;;;;4982399;28;20242;-94
2023/05/02 17:46:22;;;;;;;0.50;0.50;;;;;;;;;;4922902;29;20207;-92
2023/05/02 17:54:45;;;;;;;0.60;0.50;;;;;;;;;;4914210;28;20214;-92
2023/05/02 17:57:21;;;;;;;0.43;0.40;;;;;;;;;;4981383;28;20205;-92
2023/05/02 18:00:13;;;;;;;0.38;0.38;;;;;;;;;;4981040;28;20198;-92
2023/05/02 18:02:46;;;;;;;0.47;0.47;;;;;;;;;;4986435;28;20207;-93
2023/05/02 18:05:21;;;;;;;0.40;0.40;;;;;;;;;;4994254;28;20250;-92
2023/05/02 18:14:08;;;;;;;1.90;0.50;;;;;;;;;;4972667;28;20207;-94
2023/05/02 18:17:03;;;;;;;0.33;0.33;;;;;;;;;;4989132;28;20219;-92
2023/05/02 18:19:42;;;;;;;0.53;0.53;;;;;;;;;;4985461;28;20582;-93
2023/05/02 18:50:35;;;;;;;1.60;0.30;;;;;;;;;;4789159;29;20744;-94
2023/05/02 18:53:23;;;;;;;0.40;0.40;;;;;;;;;;4774763;30;20339;-93